KBIL/BIL METAR and TAF weather

Enter ICAO airport designator
Station Type Date Time Source
KBIL METAR 2019/07/18 10:53 UTC NOAA

KBIL 181053Z 24006KT 10SM FEW150 17/09 A2982 RMK AO2 SLP063 T01720094


Station Type Date Time Source
KBIL Decoded METAR 2019/07/18 10:53 UTC NOAA

LOGAN INTERNATIONAL AIRPORT, MT, United States (KBIL) 45-49N 108-33W 1091M
Jul 18, 2019 - 06:53 AM EDT / 2019.07.18 1053 UTC
Wind: from the WSW (240 degrees) at 7 MPH (6 KT):0
Visibility: 10 mile(s):0
Sky conditions: mostly clear
Temperature: 63.0 F (17.2 C)
Dew Point: 48.9 F (9.4 C)
Relative Humidity: 60%
Pressure (altimeter): 29.82 in. Hg (1009 hPa)
ob: KBIL 181053Z 24006KT 10SM FEW150 17/09 A2982 RMK AO2 SLP063 T01720094
cycle: 11

Station Type Date Time Source
KBIL TAF 2019/07/18 06:30 UTC NOAA

TAF KBIL 180528Z 1806/1906 VRB06KT P6SM VCSH SCT090 BKN150
FM180730 25007KT P6SM SCT150
FM181800 27010G17KT P6SM SCT090 BKN120
FM190100 34009KT P6SM BKN090

Example: see airport list